sensor_id;sensor_type;location;lat;lon;timestamp;temperature;humidity
18260;DHT22;9256;52.236;5.712;2023-12-20T00:01:01;6.00;99.90
18260;DHT22;9256;52.236;5.712;2023-12-20T00:03:28;5.90;99.90
18260;DHT22;9256;52.236;5.712;2023-12-20T00:05:55;5.90;99.90
18260;DHT22;9256;52.236;5.712;2023-12-20T00:08:22;5.90;99.90
18260;DHT22;9256;52.236;5.712;2023-12-20T00:10:49;5.90;99.90
18260;DHT22;9256;52.236;5.712;2023-12-20T00:13:16;5.90;99.90
18260;DHT22;9256;52.236;5.712;2023-12-20T00:15:44;5.80;99.90
18260;DHT22;9256;52.236;5.712;2023-12-20T00:18:11;5.80;99.90
18260;DHT22;9256;52.236;5.712;2023-12-20T00:20:38;5.80;99.90
18260;DHT22;9256;52.236;5.712;2023-12-20T00:23:05;5.80;99.90
18260;DHT22;9256;52.236;5.712;2023-12-20T00:25:33;5.80;99.90
18260;DHT22;9256;52.236;5.712;2023-12-20T00:28:00;5.60;99.90
18260;DHT22;9256;52.236;5.712;2023-12-20T00:30:27;5.60;99.90
18260;DHT22;9256;52.236;5.712;2023-12-20T00:32:56;5.60;99.90
18260;DHT22;9256;52.236;5.712;2023-12-20T00:35:22;5.60;99.90
18260;DHT22;9256;52.236;5.712;2023-12-20T00:37:50;5.50;99.90
18260;DHT22;9256;52.236;5.712;2023-12-20T00:40:16;5.40;99.90
18260;DHT22;9256;52.236;5.712;2023-12-20T00:42:43;5.50;99.90
18260;DHT22;9256;52.236;5.712;2023-12-20T00:45:12;5.50;99.90
18260;DHT22;9256;52.236;5.712;2023-12-20T00:47:40;5.60;99.90
18260;DHT22;9256;52.236;5.712;2023-12-20T00:50:09;5.60;99.90
18260;DHT22;9256;52.236;5.712;2023-12-20T00:52:36;5.60;99.90
18260;DHT22;9256;52.236;5.712;2023-12-20T00:55:03;5.70;99.90
18260;DHT22;9256;52.236;5.712;2023-12-20T00:57:32;5.70;99.90
18260;DHT22;9256;52.236;5.712;2023-12-20T00:59:59;5.50;99.90
18260;DHT22;9256;52.236;5.712;2023-12-20T01:02:26;5.60;99.90
18260;DHT22;9256;52.236;5.712;2023-12-20T01:04:53;5.60;99.90
18260;DHT22;9256;52.236;5.712;2023-12-20T01:07:21;5.60;99.90
18260;DHT22;9256;52.236;5.712;2023-12-20T01:09:48;5.50;99.90
18260;DHT22;9256;52.236;5.712;2023-12-20T01:12:15;5.50;99.90
18260;DHT22;9256;52.236;5.712;2023-12-20T01:14:42;5.50;99.90
18260;DHT22;9256;52.236;5.712;2023-12-20T01:17:09;5.60;99.90
18260;DHT22;9256;52.236;5.712;2023-12-20T01:19:35;5.60;99.90
18260;DHT22;9256;52.236;5.712;2023-12-20T01:22:02;5.40;99.90
18260;DHT22;9256;52.236;5.712;2023-12-20T01:24:31;5.40;99.90
18260;DHT22;9256;52.236;5.712;2023-12-20T01:26:58;5.40;99.90
18260;DHT22;9256;52.236;5.712;2023-12-20T01:29:25;5.40;99.90
18260;DHT22;9256;52.236;5.712;2023-12-20T01:31:51;5.30;99.90
18260;DHT22;9256;52.236;5.712;2023-12-20T01:34:18;5.40;99.90
18260;DHT22;9256;52.236;5.712;2023-12-20T01:36:45;5.30;99.90
18260;DHT22;9256;52.236;5.712;2023-12-20T01:39:12;5.40;99.90
18260;DHT22;9256;52.236;5.712;2023-12-20T01:41:40;5.50;99.90
18260;DHT22;9256;52.236;5.712;2023-12-20T01:44:07;5.50;99.90
18260;DHT22;9256;52.236;5.712;2023-12-20T01:46:34;5.60;99.90
18260;DHT22;9256;52.236;5.712;2023-12-20T01:49:01;5.50;99.90
18260;DHT22;9256;52.236;5.712;2023-12-20T01:51:29;5.50;99.90
18260;DHT22;9256;52.236;5.712;2023-12-20T01:53:58;5.40;99.90
18260;DHT22;9256;52.236;5.712;2023-12-20T01:56:26;5.40;99.90
18260;DHT22;9256;52.236;5.712;2023-12-20T01:58:55;5.40;99.90
18260;DHT22;9256;52.236;5.712;2023-12-20T02:01:22;5.30;99.90
18260;DHT22;9256;52.236;5.712;2023-12-20T02:03:50;5.40;99.90
18260;DHT22;9256;52.236;5.712;2023-12-20T02:06:18;5.40;99.90
18260;DHT22;9256;52.236;5.712;2023-12-20T02:08:46;5.40;99.90
18260;DHT22;9256;52.236;5.712;2023-12-20T02:11:13;5.30;99.90
18260;DHT22;9256;52.236;5.712;2023-12-20T02:13:40;5.40;99.90
18260;DHT22;9256;52.236;5.712;2023-12-20T02:16:08;5.50;99.90
18260;DHT22;9256;52.236;5.712;2023-12-20T02:18:35;5.40;99.90
18260;DHT22;9256;52.236;5.712;2023-12-20T02:21:04;5.40;99.90
18260;DHT22;9256;52.236;5.712;2023-12-20T02:23:32;5.50;99.90
18260;DHT22;9256;52.236;5.712;2023-12-20T02:25:59;5.60;99.90
18260;DHT22;9256;52.236;5.712;2023-12-20T02:28:26;5.60;99.90
18260;DHT22;9256;52.236;5.712;2023-12-20T02:30:54;5.60;99.90
18260;DHT22;9256;52.236;5.712;2023-12-20T02:33:21;5.70;99.90
18260;DHT22;9256;52.236;5.712;2023-12-20T02:35:48;5.70;99.90
18260;DHT22;9256;52.236;5.712;2023-12-20T02:38:15;5.80;99.90
18260;DHT22;9256;52.236;5.712;2023-12-20T02:40:44;5.80;99.90
18260;DHT22;9256;52.236;5.712;2023-12-20T02:43:10;5.80;99.90
18260;DHT22;9256;52.236;5.712;2023-12-20T02:45:37;5.80;99.90
18260;DHT22;9256;52.236;5.712;2023-12-20T02:48:05;5.80;99.90
18260;DHT22;9256;52.236;5.712;2023-12-20T02:50:32;5.80;99.90
18260;DHT22;9256;52.236;5.712;2023-12-20T02:52:58;5.80;99.90
18260;DHT22;9256;52.236;5.712;2023-12-20T02:55:25;5.70;99.90
18260;DHT22;9256;52.236;5.712;2023-12-20T02:57:54;5.70;99.90
18260;DHT22;9256;52.236;5.712;2023-12-20T03:00:20;5.60;99.90
18260;DHT22;9256;52.236;5.712;2023-12-20T03:02:47;5.70;99.90
18260;DHT22;9256;52.236;5.712;2023-12-20T03:05:14;5.70;99.90
18260;DHT22;9256;52.236;5.712;2023-12-20T03:07:41;5.70;99.90
18260;DHT22;9256;52.236;5.712;2023-12-20T03:10:08;5.70;99.90
18260;DHT22;9256;52.236;5.712;2023-12-20T03:12:35;5.80;99.90
18260;DHT22;9256;52.236;5.712;2023-12-20T03:15:04;5.90;99.90
18260;DHT22;9256;52.236;5.712;2023-12-20T03:17:31;5.90;99.90
18260;DHT22;9256;52.236;5.712;2023-12-20T03:19:58;5.90;99.90
18260;DHT22;9256;52.236;5.712;2023-12-20T03:22:25;5.90;99.90
18260;DHT22;9256;52.236;5.712;2023-12-20T03:24:52;6.00;99.90
18260;DHT22;9256;52.236;5.712;2023-12-20T03:27:18;6.00;99.90
18260;DHT22;9256;52.236;5.712;2023-12-20T03:29:45;6.00;99.90
18260;DHT22;9256;52.236;5.712;2023-12-20T03:32:14;5.90;99.90
18260;DHT22;9256;52.236;5.712;2023-12-20T03:34:40;6.00;99.90
18260;DHT22;9256;52.236;5.712;2023-12-20T03:37:07;6.00;99.90
18260;DHT22;9256;52.236;5.712;2023-12-20T03:39:34;5.90;99.90
18260;DHT22;9256;52.236;5.712;2023-12-20T03:42:01;5.80;99.90
18260;DHT22;9256;52.236;5.712;2023-12-20T03:44:28;5.90;99.90
18260;DHT22;9256;52.236;5.712;2023-12-20T03:46:55;5.90;99.90
18260;DHT22;9256;52.236;5.712;2023-12-20T03:49:23;5.90;99.90
18260;DHT22;9256;52.236;5.712;2023-12-20T03:51:50;5.90;99.90
18260;DHT22;9256;52.236;5.712;2023-12-20T03:54:17;6.00;99.90
18260;DHT22;9256;52.236;5.712;2023-12-20T03:56:44;5.90;99.90
18260;DHT22;9256;52.236;5.712;2023-12-20T03:59:11;6.00;99.90
18260;DHT22;9256;52.236;5.712;2023-12-20T04:01:37;6.10;99.90
18260;DHT22;9256;52.236;5.712;2023-12-20T04:04:04;6.10;99.90
18260;DHT22;9256;52.236;5.712;2023-12-20T04:06:33;6.00;99.90
18260;DHT22;9256;52.236;5.712;2023-12-20T04:09:00;6.00;99.90
18260;DHT22;9256;52.236;5.712;2023-12-20T04:11:26;6.00;99.90
18260;DHT22;9256;52.236;5.712;2023-12-20T04:13:54;6.00;99.90
18260;DHT22;9256;52.236;5.712;2023-12-20T04:16:21;6.10;99.90
18260;DHT22;9256;52.236;5.712;2023-12-20T04:18:48;6.10;99.90
18260;DHT22;9256;52.236;5.712;2023-12-20T04:21:15;6.20;99.90
18260;DHT22;9256;52.236;5.712;2023-12-20T04:23:43;6.10;99.90
18260;DHT22;9256;52.236;5.712;2023-12-20T04:26:10;6.20;99.90
18260;DHT22;9256;52.236;5.712;2023-12-20T04:28:37;6.30;99.90
18260;DHT22;9256;52.236;5.712;2023-12-20T04:31:04;6.30;99.90
18260;DHT22;9256;52.236;5.712;2023-12-20T04:33:31;6.40;99.90
18260;DHT22;9256;52.236;5.712;2023-12-20T04:35:58;6.40;99.90
18260;DHT22;9256;52.236;5.712;2023-12-20T04:38:25;6.40;99.90
18260;DHT22;9256;52.236;5.712;2023-12-20T04:40:53;6.40;99.90
18260;DHT22;9256;52.236;5.712;2023-12-20T04:43:20;6.40;99.90
18260;DHT22;9256;52.236;5.712;2023-12-20T04:45:47;6.40;99.90
18260;DHT22;9256;52.236;5.712;2023-12-20T04:48:14;6.40;99.90
18260;DHT22;9256;52.236;5.712;2023-12-20T04:50:41;6.50;99.90
18260;DHT22;9256;52.236;5.712;2023-12-20T04:53:08;6.50;99.90
18260;DHT22;9256;52.236;5.712;2023-12-20T04:55:35;6.40;99.90
18260;DHT22;9256;52.236;5.712;2023-12-20T04:58:03;6.50;99.90
18260;DHT22;9256;52.236;5.712;2023-12-20T05:00:30;6.40;99.90
18260;DHT22;9256;52.236;5.712;2023-12-20T05:02:57;6.50;99.90
18260;DHT22;9256;52.236;5.712;2023-12-20T05:05:24;6.50;99.90
18260;DHT22;9256;52.236;5.712;2023-12-20T05:07:51;6.60;99.90
18260;DHT22;9256;52.236;5.712;2023-12-20T05:10:18;6.60;99.90
18260;DHT22;9256;52.236;5.712;2023-12-20T05:12:45;6.70;99.90
18260;DHT22;9256;52.236;5.712;2023-12-20T05:15:13;6.60;99.90
18260;DHT22;9256;52.236;5.712;2023-12-20T05:17:40;6.60;99.90
18260;DHT22;9256;52.236;5.712;2023-12-20T05:20:08;6.70;99.90
18260;DHT22;9256;52.236;5.712;2023-12-20T05:22:36;6.70;99.90
18260;DHT22;9256;52.236;5.712;2023-12-20T05:25:05;6.70;99.90
18260;DHT22;9256;52.236;5.712;2023-12-20T05:27:31;6.80;99.90
18260;DHT22;9256;52.236;5.712;2023-12-20T05:29:58;6.80;99.90
18260;DHT22;9256;52.236;5.712;2023-12-20T05:32:27;6.80;99.90
18260;DHT22;9256;52.236;5.712;2023-12-20T05:34:53;6.70;99.90
18260;DHT22;9256;52.236;5.712;2023-12-20T05:37:20;6.70;99.90
18260;DHT22;9256;52.236;5.712;2023-12-20T05:39:47;6.70;99.90
18260;DHT22;9256;52.236;5.712;2023-12-20T05:42:14;6.80;99.90
18260;DHT22;9256;52.236;5.712;2023-12-20T05:44:41;6.80;99.90
18260;DHT22;9256;52.236;5.712;2023-12-20T05:47:08;6.90;99.90
18260;DHT22;9256;52.236;5.712;2023-12-20T05:49:36;6.90;99.90
18260;DHT22;9256;52.236;5.712;2023-12-20T05:52:03;6.90;99.90
18260;DHT22;9256;52.236;5.712;2023-12-20T05:54:30;6.90;99.90
18260;DHT22;9256;52.236;5.712;2023-12-20T05:56:57;6.90;99.90
18260;DHT22;9256;52.236;5.712;2023-12-20T05:59:24;6.90;99.90
18260;DHT22;9256;52.236;5.712;2023-12-20T06:01:51;7.00;99.90
18260;DHT22;9256;52.236;5.712;2023-12-20T06:04:18;7.00;99.90
18260;DHT22;9256;52.236;5.712;2023-12-20T06:06:46;7.00;99.90
18260;DHT22;9256;52.236;5.712;2023-12-20T06:09:13;7.00;99.90
18260;DHT22;9256;52.236;5.712;2023-12-20T06:11:40;6.90;99.90
18260;DHT22;9256;52.236;5.712;2023-12-20T06:14:07;6.90;99.90
18260;DHT22;9256;52.236;5.712;2023-12-20T06:16:34;6.90;99.90
18260;DHT22;9256;52.236;5.712;2023-12-20T06:19:01;6.90;99.90
18260;DHT22;9256;52.236;5.712;2023-12-20T06:21:28;6.80;99.90
18260;DHT22;9256;52.236;5.712;2023-12-20T06:23:56;6.90;99.90
18260;DHT22;9256;52.236;5.712;2023-12-20T06:26:23;6.90;99.90
18260;DHT22;9256;52.236;5.712;2023-12-20T06:28:50;6.90;99.90
18260;DHT22;9256;52.236;5.712;2023-12-20T06:31:17;7.00;99.90
18260;DHT22;9256;52.236;5.712;2023-12-20T06:33:44;7.00;99.90
18260;DHT22;9256;52.236;5.712;2023-12-20T06:36:11;6.90;99.90
18260;DHT22;9256;52.236;5.712;2023-12-20T06:38:38;6.90;99.90
18260;DHT22;9256;52.236;5.712;2023-12-20T06:41:07;7.00;99.90
18260;DHT22;9256;52.236;5.712;2023-12-20T06:43:34;7.10;99.90
18260;DHT22;9256;52.236;5.712;2023-12-20T06:46:01;7.00;99.90
18260;DHT22;9256;52.236;5.712;2023-12-20T06:48:28;7.00;99.90
18260;DHT22;9256;52.236;5.712;2023-12-20T06:50:55;7.00;99.90
18260;DHT22;9256;52.236;5.712;2023-12-20T06:53:22;7.00;99.90
18260;DHT22;9256;52.236;5.712;2023-12-20T06:55:48;7.00;99.90
18260;DHT22;9256;52.236;5.712;2023-12-20T06:58:17;7.10;99.90
18260;DHT22;9256;52.236;5.712;2023-12-20T07:00:44;7.20;99.90
18260;DHT22;9256;52.236;5.712;2023-12-20T07:03:11;7.20;99.90
18260;DHT22;9256;52.236;5.712;2023-12-20T07:05:37;7.20;99.90
18260;DHT22;9256;52.236;5.712;2023-12-20T07:08:05;7.20;99.90
18260;DHT22;9256;52.236;5.712;2023-12-20T07:10:32;7.20;99.90
18260;DHT22;9256;52.236;5.712;2023-12-20T07:12:59;7.20;99.90
18260;DHT22;9256;52.236;5.712;2023-12-20T07:15:28;7.10;99.90
18260;DHT22;9256;52.236;5.712;2023-12-20T07:17:55;7.20;99.90
18260;DHT22;9256;52.236;5.712;2023-12-20T07:20:22;7.20;99.90
18260;DHT22;9256;52.236;5.712;2023-12-20T07:22:49;7.20;99.90
18260;DHT22;9256;52.236;5.712;2023-12-20T07:25:16;7.30;99.90
18260;DHT22;9256;52.236;5.712;2023-12-20T07:27:43;7.30;99.90
18260;DHT22;9256;52.236;5.712;2023-12-20T07:30:11;7.30;99.90
18260;DHT22;9256;52.236;5.712;2023-12-20T07:32:39;7.30;99.90
18260;DHT22;9256;52.236;5.712;2023-12-20T07:35:07;7.30;99.90
18260;DHT22;9256;52.236;5.712;2023-12-20T07:37:33;7.40;99.90
18260;DHT22;9256;52.236;5.712;2023-12-20T07:40:00;7.40;99.90
18260;DHT22;9256;52.236;5.712;2023-12-20T07:42:29;7.40;99.90
18260;DHT22;9256;52.236;5.712;2023-12-20T07:44:58;7.40;99.90
18260;DHT22;9256;52.236;5.712;2023-12-20T07:47:25;7.40;99.90
18260;DHT22;9256;52.236;5.712;2023-12-20T07:49:56;7.40;99.90
18260;DHT22;9256;52.236;5.712;2023-12-20T07:52:23;7.40;99.90
18260;DHT22;9256;52.236;5.712;2023-12-20T07:54:50;7.50;99.90
18260;DHT22;9256;52.236;5.712;2023-12-20T07:57:17;7.50;99.90
18260;DHT22;9256;52.236;5.712;2023-12-20T07:59:43;7.50;99.90
18260;DHT22;9256;52.236;5.712;2023-12-20T08:02:10;7.50;99.90
18260;DHT22;9256;52.236;5.712;2023-12-20T08:04:37;7.50;99.90
18260;DHT22;9256;52.236;5.712;2023-12-20T08:07:06;7.50;99.90
18260;DHT22;9256;52.236;5.712;2023-12-20T08:09:32;7.60;99.90
18260;DHT22;9256;52.236;5.712;2023-12-20T08:12:02;7.50;99.90
18260;DHT22;9256;52.236;5.712;2023-12-20T08:14:29;7.60;99.90
18260;DHT22;9256;52.236;5.712;2023-12-20T08:16:57;7.60;99.90
18260;DHT22;9256;52.236;5.712;2023-12-20T08:19:23;7.60;99.90
18260;DHT22;9256;52.236;5.712;2023-12-20T08:21:50;7.50;99.90
18260;DHT22;9256;52.236;5.712;2023-12-20T08:24:20;7.60;99.90
18260;DHT22;9256;52.236;5.712;2023-12-20T08:26:46;7.60;99.90
18260;DHT22;9256;52.236;5.712;2023-12-20T08:29:13;7.70;99.90
18260;DHT22;9256;52.236;5.712;2023-12-20T08:31:40;7.60;99.90
18260;DHT22;9256;52.236;5.712;2023-12-20T08:34:07;7.60;99.90
18260;DHT22;9256;52.236;5.712;2023-12-20T08:36:34;7.60;99.90
18260;DHT22;9256;52.236;5.712;2023-12-20T08:39:01;7.60;99.90
18260;DHT22;9256;52.236;5.712;2023-12-20T08:41:30;7.70;99.90
18260;DHT22;9256;52.236;5.712;2023-12-20T08:43:57;7.70;99.90
18260;DHT22;9256;52.236;5.712;2023-12-20T08:46:24;7.60;99.90
18260;DHT22;9256;52.236;5.712;2023-12-20T08:48:51;7.60;99.90
18260;DHT22;9256;52.236;5.712;2023-12-20T08:51:18;7.60;99.90
18260;DHT22;9256;52.236;5.712;2023-12-20T08:53:45;7.60;99.90
18260;DHT22;9256;52.236;5.712;2023-12-20T08:56:13;7.60;99.90
18260;DHT22;9256;52.236;5.712;2023-12-20T08:58:41;7.70;99.90
18260;DHT22;9256;52.236;5.712;2023-12-20T09:01:08;7.70;99.90
18260;DHT22;9256;52.236;5.712;2023-12-20T09:03:35;7.70;99.90
18260;DHT22;9256;52.236;5.712;2023-12-20T09:06:03;7.70;99.90
18260;DHT22;9256;52.236;5.712;2023-12-20T09:08:30;7.70;99.90
18260;DHT22;9256;52.236;5.712;2023-12-20T09:10:56;7.60;99.90
18260;DHT22;9256;52.236;5.712;2023-12-20T09:13:24;7.60;99.90
18260;DHT22;9256;52.236;5.712;2023-12-20T09:15:55;7.60;99.90
18260;DHT22;9256;52.236;5.712;2023-12-20T09:18:22;7.60;99.90
18260;DHT22;9256;52.236;5.712;2023-12-20T09:20:49;7.50;99.90
18260;DHT22;9256;52.236;5.712;2023-12-20T09:23:16;7.50;99.90
18260;DHT22;9256;52.236;5.712;2023-12-20T09:25:43;7.50;99.90
18260;DHT22;9256;52.236;5.712;2023-12-20T09:28:10;7.50;99.90
18260;DHT22;9256;52.236;5.712;2023-12-20T09:30:37;7.50;99.90
18260;DHT22;9256;52.236;5.712;2023-12-20T09:33:08;7.50;99.90
18260;DHT22;9256;52.236;5.712;2023-12-20T09:35:35;7.60;99.90
18260;DHT22;9256;52.236;5.712;2023-12-20T09:38:03;7.60;99.90
18260;DHT22;9256;52.236;5.712;2023-12-20T09:40:32;7.60;99.90
18260;DHT22;9256;52.236;5.712;2023-12-20T09:43:03;7.60;99.90
18260;DHT22;9256;52.236;5.712;2023-12-20T09:45:31;7.60;99.90
18260;DHT22;9256;52.236;5.712;2023-12-20T09:47:58;7.60;99.90
18260;DHT22;9256;52.236;5.712;2023-12-20T09:50:27;7.70;99.90
18260;DHT22;9256;52.236;5.712;2023-12-20T09:52:58;7.80;99.90
18260;DHT22;9256;52.236;5.712;2023-12-20T09:55:25;7.90;99.90
18260;DHT22;9256;52.236;5.712;2023-12-20T09:57:53;7.90;99.90
18260;DHT22;9256;52.236;5.712;2023-12-20T10:00:20;7.90;99.90
18260;DHT22;9256;52.236;5.712;2023-12-20T10:02:50;8.00;99.90
18260;DHT22;9256;52.236;5.712;2023-12-20T10:05:27;8.00;99.90
18260;DHT22;9256;52.236;5.712;2023-12-20T10:07:55;8.10;99.90
18260;DHT22;9256;52.236;5.712;2023-12-20T10:10:22;8.10;99.90
18260;DHT22;9256;52.236;5.712;2023-12-20T10:13:01;8.10;99.90
18260;DHT22;9256;52.236;5.712;2023-12-20T10:15:29;8.20;99.90
18260;DHT22;9256;52.236;5.712;2023-12-20T10:17:56;8.20;99.90
18260;DHT22;9256;52.236;5.712;2023-12-20T10:20:23;8.20;99.90
18260;DHT22;9256;52.236;5.712;2023-12-20T10:22:52;8.30;99.90
18260;DHT22;9256;52.236;5.712;2023-12-20T10:25:20;8.30;99.90
18260;DHT22;9256;52.236;5.712;2023-12-20T10:27:47;8.40;99.90
18260;DHT22;9256;52.236;5.712;2023-12-20T10:30:14;8.40;99.90
18260;DHT22;9256;52.236;5.712;2023-12-20T10:32:41;8.40;99.90
18260;DHT22;9256;52.236;5.712;2023-12-20T10:35:09;8.40;99.90
18260;DHT22;9256;52.236;5.712;2023-12-20T10:37:36;8.40;99.90
18260;DHT22;9256;52.236;5.712;2023-12-20T10:40:06;8.30;99.90
18260;DHT22;9256;52.236;5.712;2023-12-20T10:42:33;8.40;99.90
18260;DHT22;9256;52.236;5.712;2023-12-20T10:45:01;8.40;99.90
18260;DHT22;9256;52.236;5.712;2023-12-20T10:47:30;8.40;99.90
18260;DHT22;9256;52.236;5.712;2023-12-20T10:49:57;8.40;99.90
18260;DHT22;9256;52.236;5.712;2023-12-20T10:52:28;8.40;99.90
18260;DHT22;9256;52.236;5.712;2023-12-20T10:54:56;8.40;99.90
18260;DHT22;9256;52.236;5.712;2023-12-20T10:57:26;8.40;99.90
18260;DHT22;9256;52.236;5.712;2023-12-20T10:59:54;8.30;99.90
18260;DHT22;9256;52.236;5.712;2023-12-20T11:02:22;8.40;99.90
18260;DHT22;9256;52.236;5.712;2023-12-20T11:04:55;8.50;99.90
18260;DHT22;9256;52.236;5.712;2023-12-20T11:07:32;8.60;99.90
18260;DHT22;9256;52.236;5.712;2023-12-20T11:10:03;8.60;99.90
18260;DHT22;9256;52.236;5.712;2023-12-20T11:12:39;8.70;99.90
18260;DHT22;9256;52.236;5.712;2023-12-20T11:15:09;9.00;99.90
18260;DHT22;9256;52.236;5.712;2023-12-20T11:17:40;9.10;99.90
18260;DHT22;9256;52.236;5.712;2023-12-20T11:20:11;9.20;99.90
18260;DHT22;9256;52.236;5.712;2023-12-20T11:22:40;9.40;99.90
18260;DHT22;9256;52.236;5.712;2023-12-20T11:25:18;9.60;99.90
18260;DHT22;9256;52.236;5.712;2023-12-20T11:28:06;9.70;99.90
18260;DHT22;9256;52.236;5.712;2023-12-20T11:30:41;9.90;99.90
18260;DHT22;9256;52.236;5.712;2023-12-20T11:33:08;10.10;99.90
18260;DHT22;9256;52.236;5.712;2023-12-20T11:35:35;10.10;99.90
18260;DHT22;9256;52.236;5.712;2023-12-20T11:38:02;10.10;99.90
18260;DHT22;9256;52.236;5.712;2023-12-20T11:40:33;10.20;99.90
18260;DHT22;9256;52.236;5.712;2023-12-20T11:43:03;9.90;99.90
18260;DHT22;9256;52.236;5.712;2023-12-20T11:45:30;9.90;99.90
18260;DHT22;9256;52.236;5.712;2023-12-20T11:47:58;9.70;99.90
18260;DHT22;9256;52.236;5.712;2023-12-20T11:50:25;9.60;99.90
18260;DHT22;9256;52.236;5.712;2023-12-20T11:52:54;9.60;99.90
18260;DHT22;9256;52.236;5.712;2023-12-20T11:55:22;9.50;99.90
18260;DHT22;9256;52.236;5.712;2023-12-20T11:57:50;9.50;99.90
18260;DHT22;9256;52.236;5.712;2023-12-20T12:00:18;9.40;99.90
18260;DHT22;9256;52.236;5.712;2023-12-20T12:02:56;9.40;99.90
18260;DHT22;9256;52.236;5.712;2023-12-20T12:05:23;9.40;99.90
18260;DHT22;9256;52.236;5.712;2023-12-20T12:07:53;9.40;99.90
18260;DHT22;9256;52.236;5.712;2023-12-20T12:10:25;9.40;99.90
18260;DHT22;9256;52.236;5.712;2023-12-20T12:13:12;9.40;99.90
18260;DHT22;9256;52.236;5.712;2023-12-20T12:15:56;9.30;99.90
18260;DHT22;9256;52.236;5.712;2023-12-20T12:18:27;9.30;99.90
18260;DHT22;9256;52.236;5.712;2023-12-20T12:21:05;9.40;99.90
18260;DHT22;9256;52.236;5.712;2023-12-20T12:23:45;9.30;99.90
18260;DHT22;9256;52.236;5.712;2023-12-20T12:26:21;9.40;99.90
18260;DHT22;9256;52.236;5.712;2023-12-20T12:28:54;9.30;99.90
18260;DHT22;9256;52.236;5.712;2023-12-20T12:31:25;9.30;99.90
18260;DHT22;9256;52.236;5.712;2023-12-20T12:33:52;9.50;99.90
18260;DHT22;9256;52.236;5.712;2023-12-20T12:36:19;9.50;99.90
18260;DHT22;9256;52.236;5.712;2023-12-20T12:38:46;9.50;99.90
18260;DHT22;9256;52.236;5.712;2023-12-20T12:41:16;9.50;99.90
18260;DHT22;9256;52.236;5.712;2023-12-20T12:43:44;9.40;99.90
18260;DHT22;9256;52.236;5.712;2023-12-20T12:46:19;9.40;99.90
18260;DHT22;9256;52.236;5.712;2023-12-20T12:48:47;9.30;99.90
18260;DHT22;9256;52.236;5.712;2023-12-20T12:51:16;9.30;99.90
18260;DHT22;9256;52.236;5.712;2023-12-20T12:53:46;9.30;99.90
18260;DHT22;9256;52.236;5.712;2023-12-20T12:56:13;9.30;99.90
18260;DHT22;9256;52.236;5.712;2023-12-20T12:58:40;9.20;99.90
18260;DHT22;9256;52.236;5.712;2023-12-20T13:01:07;9.20;99.90
18260;DHT22;9256;52.236;5.712;2023-12-20T13:03:35;9.20;99.90
18260;DHT22;9256;52.236;5.712;2023-12-20T13:06:04;9.20;99.90
18260;DHT22;9256;52.236;5.712;2023-12-20T13:08:31;9.10;99.90
18260;DHT22;9256;52.236;5.712;2023-12-20T13:10:59;9.10;99.90
18260;DHT22;9256;52.236;5.712;2023-12-20T13:13:26;9.00;99.90
18260;DHT22;9256;52.236;5.712;2023-12-20T13:15:54;9.10;99.90
18260;DHT22;9256;52.236;5.712;2023-12-20T13:18:21;9.10;99.90
18260;DHT22;9256;52.236;5.712;2023-12-20T13:20:48;9.10;99.90
18260;DHT22;9256;52.236;5.712;2023-12-20T13:23:16;9.10;99.90
18260;DHT22;9256;52.236;5.712;2023-12-20T13:25:44;9.10;99.90
18260;DHT22;9256;52.236;5.712;2023-12-20T13:28:12;9.10;99.90
18260;DHT22;9256;52.236;5.712;2023-12-20T13:30:39;9.10;99.90
18260;DHT22;9256;52.236;5.712;2023-12-20T13:33:06;9.10;99.90
18260;DHT22;9256;52.236;5.712;2023-12-20T13:35:34;9.20;99.90
18260;DHT22;9256;52.236;5.712;2023-12-20T13:38:04;9.20;99.90
18260;DHT22;9256;52.236;5.712;2023-12-20T13:40:35;9.10;99.90
18260;DHT22;9256;52.236;5.712;2023-12-20T13:43:07;9.00;99.90
18260;DHT22;9256;52.236;5.712;2023-12-20T13:46:02;9.00;99.90
18260;DHT22;9256;52.236;5.712;2023-12-20T13:48:49;9.00;99.90
18260;DHT22;9256;52.236;5.712;2023-12-20T13:51:21;8.90;99.90
18260;DHT22;9256;52.236;5.712;2023-12-20T13:53:55;8.90;99.90
18260;DHT22;9256;52.236;5.712;2023-12-20T13:56:35;8.90;99.90
18260;DHT22;9256;52.236;5.712;2023-12-20T13:59:13;8.90;99.90
18260;DHT22;9256;52.236;5.712;2023-12-20T14:01:47;8.80;99.90
18260;DHT22;9256;52.236;5.712;2023-12-20T14:04:19;8.80;99.90
18260;DHT22;9256;52.236;5.712;2023-12-20T14:06:47;8.90;99.90
18260;DHT22;9256;52.236;5.712;2023-12-20T14:09:19;8.90;99.90
18260;DHT22;9256;52.236;5.712;2023-12-20T14:11:50;8.90;99.90
18260;DHT22;9256;52.236;5.712;2023-12-20T14:14:16;8.90;99.90
18260;DHT22;9256;52.236;5.712;2023-12-20T14:16:43;8.90;99.90
18260;DHT22;9256;52.236;5.712;2023-12-20T14:19:11;9.00;99.90
18260;DHT22;9256;52.236;5.712;2023-12-20T14:21:38;8.90;99.90
18260;DHT22;9256;52.236;5.712;2023-12-20T14:24:05;8.90;99.90
18260;DHT22;9256;52.236;5.712;2023-12-20T14:26:32;8.90;99.90
18260;DHT22;9256;52.236;5.712;2023-12-20T14:29:01;8.90;99.90
18260;DHT22;9256;52.236;5.712;2023-12-20T14:31:29;8.90;99.90
18260;DHT22;9256;52.236;5.712;2023-12-20T14:33:56;8.90;99.90
18260;DHT22;9256;52.236;5.712;2023-12-20T14:36:24;8.90;99.90
18260;DHT22;9256;52.236;5.712;2023-12-20T14:38:50;8.90;99.90
18260;DHT22;9256;52.236;5.712;2023-12-20T14:41:17;9.00;99.90
18260;DHT22;9256;52.236;5.712;2023-12-20T14:43:44;8.90;99.90
18260;DHT22;9256;52.236;5.712;2023-12-20T14:46:13;8.90;99.90
18260;DHT22;9256;52.236;5.712;2023-12-20T14:48:41;8.90;99.90
18260;DHT22;9256;52.236;5.712;2023-12-20T14:51:08;8.90;99.90
18260;DHT22;9256;52.236;5.712;2023-12-20T14:53:37;8.90;99.90
18260;DHT22;9256;52.236;5.712;2023-12-20T14:56:05;8.80;99.90
18260;DHT22;9256;52.236;5.712;2023-12-20T14:58:32;8.80;99.90
18260;DHT22;9256;52.236;5.712;2023-12-20T15:00:59;8.90;99.90
18260;DHT22;9256;52.236;5.712;2023-12-20T15:03:27;8.80;99.90
18260;DHT22;9256;52.236;5.712;2023-12-20T15:05:55;8.80;99.90
18260;DHT22;9256;52.236;5.712;2023-12-20T15:08:24;8.80;99.90
18260;DHT22;9256;52.236;5.712;2023-12-20T15:10:51;8.80;99.90
18260;DHT22;9256;52.236;5.712;2023-12-20T15:13:18;8.80;99.90
18260;DHT22;9256;52.236;5.712;2023-12-20T15:15:45;8.80;99.90
18260;DHT22;9256;52.236;5.712;2023-12-20T15:18:12;8.80;99.90
18260;DHT22;9256;52.236;5.712;2023-12-20T15:20:41;8.80;99.90
18260;DHT22;9256;52.236;5.712;2023-12-20T15:23:10;8.80;99.90
18260;DHT22;9256;52.236;5.712;2023-12-20T15:25:39;8.70;99.90
18260;DHT22;9256;52.236;5.712;2023-12-20T15:28:06;8.80;99.90
18260;DHT22;9256;52.236;5.712;2023-12-20T15:30:33;8.80;99.90
18260;DHT22;9256;52.236;5.712;2023-12-20T15:33:00;8.80;99.90
18260;DHT22;9256;52.236;5.712;2023-12-20T15:35:28;8.80;99.90
18260;DHT22;9256;52.236;5.712;2023-12-20T15:37:57;8.80;99.90
18260;DHT22;9256;52.236;5.712;2023-12-20T15:40:25;8.80;99.90
18260;DHT22;9256;52.236;5.712;2023-12-20T15:42:51;8.70;99.90
18260;DHT22;9256;52.236;5.712;2023-12-20T15:45:19;8.70;99.90
18260;DHT22;9256;52.236;5.712;2023-12-20T15:47:46;8.60;99.90
18260;DHT22;9256;52.236;5.712;2023-12-20T15:50:13;8.60;99.90
18260;DHT22;9256;52.236;5.712;2023-12-20T15:52:40;8.70;99.90
18260;DHT22;9256;52.236;5.712;2023-12-20T15:55:10;8.70;99.90
18260;DHT22;9256;52.236;5.712;2023-12-20T15:57:37;8.60;99.90
18260;DHT22;9256;52.236;5.712;2023-12-20T16:00:06;8.50;99.90
18260;DHT22;9256;52.236;5.712;2023-12-20T16:02:34;8.50;99.90
18260;DHT22;9256;52.236;5.712;2023-12-20T16:05:01;8.50;99.90
18260;DHT22;9256;52.236;5.712;2023-12-20T16:07:28;8.50;99.90